French Island, Wisconsin
Current Conditions -  °F | °C
As of 2:16 PM on Monday 24 Nov 2014 (Local Time) from KLSE Reporting Station
Light Snow Light Snow  
Wind Chill: 15°   Ceiling: 2200
Heat Index: 28°   Visibility: 3mi
Dew Point: 21°   Wind: 18mph
Humidity: 75%   Direction: 290°WNW
Pressure: 29.44"   Gusts: 23mph
Location:  43.8°N, 91.145°W
Report Text: KLSE 242016Z 29016G20KT 3SM -SN OVC022 M02/M06 A2944 RMK AO2 P0000 T10221061
Loading
Personal Weather Stations






























Interactive Weather Map New forecast layout! Learn more

10-Day Weather Forecast

Advertisements
Track Severe Weather on mobile